createdAt,value
2019-04-20T00:02:13.853Z,15.60
2019-04-20T00:04:35.787Z,15.69
2019-04-20T00:07:01.980Z,15.35
2019-04-20T00:09:31.847Z,15.35
2019-04-20T00:12:03.842Z,15.48
2019-04-20T00:14:26.280Z,15.39
2019-04-20T00:16:50.550Z,15.29
2019-04-20T00:19:22.659Z,15.26
2019-04-20T00:22:01.531Z,15.25
2019-04-20T00:24:42.679Z,15.14
2019-04-20T00:27:34.112Z,15.00
2019-04-20T00:29:54.503Z,14.96
2019-04-20T00:32:14.614Z,14.96
2019-04-20T00:34:35.616Z,14.82
2019-04-20T00:36:58.659Z,14.74
2019-04-20T00:39:24.118Z,14.61
2019-04-20T00:41:56.229Z,14.68
2019-04-20T00:44:24.357Z,14.75
2019-04-20T00:46:56.910Z,14.68
2019-04-20T00:49:26.855Z,14.53
2019-04-20T00:52:07.475Z,14.65
2019-04-20T00:54:05.817Z,14.54
2019-04-20T00:56:31.266Z,14.49
2019-04-20T00:59:08.333Z,14.28
2019-04-20T01:01:42.250Z,14.34
2019-04-20T01:04:10.626Z,14.66
2019-04-20T01:06:40.832Z,14.83
2019-04-20T01:09:05.489Z,14.63
2019-04-20T01:11:36.825Z,14.64
2019-04-20T01:14:02.874Z,14.56
2019-04-20T01:16:36.313Z,14.49
2019-04-20T01:18:53.108Z,14.52
2019-04-20T01:21:23.573Z,14.16
2019-04-20T01:23:52.657Z,14.43
2019-04-20T01:26:16.378Z,14.44
2019-04-20T01:28:54.219Z,14.35
2019-04-20T01:31:18.452Z,14.06
2019-04-20T01:33:48.425Z,14.23
2019-04-20T01:36:19.587Z,14.18
2019-04-20T01:38:43.571Z,14.00
2019-04-20T01:40:57.135Z,14.00
2019-04-20T01:43:22.764Z,14.13
2019-04-20T01:45:52.289Z,14.05
2019-04-20T01:48:22.934Z,14.02
2019-04-20T01:50:49.942Z,13.71
2019-04-20T01:53:21.459Z,13.77
2019-04-20T01:55:50.716Z,13.88
2019-04-20T01:58:36.434Z,13.61
2019-04-20T02:00:54.789Z,13.71
2019-04-20T02:03:43.072Z,13.82
2019-04-20T02:06:09.993Z,13.68
2019-04-20T02:08:33.010Z,13.69
2019-04-20T02:11:03.622Z,13.78
2019-04-20T02:13:36.228Z,13.64
2019-04-20T02:15:58.925Z,13.64
2019-04-20T02:19:14.435Z,13.52
2019-04-20T02:21:44.997Z,13.50
2019-04-20T02:24:25.909Z,13.36
2019-04-20T02:26:59.883Z,13.55
2019-04-20T02:29:50.945Z,13.27
2019-04-20T02:32:23.245Z,13.42
2019-04-20T02:35:07.197Z,13.31
2019-04-20T02:38:02.993Z,13.03
2019-04-20T02:40:28.108Z,12.95
2019-04-20T02:43:11.933Z,12.88
2019-04-20T02:45:27.688Z,13.09
2019-04-20T02:47:47.245Z,13.07
2019-04-20T02:50:15.151Z,12.95
2019-04-20T02:55:22.839Z,13.12
2019-04-20T02:57:54.810Z,13.11
2019-04-20T03:00:31.055Z,13.09
2019-04-20T03:03:09.016Z,12.94
2019-04-20T03:05:33.129Z,12.95
2019-04-20T03:08:09.992Z,12.94
2019-04-20T03:11:12.919Z,12.72
2019-04-20T03:13:41.945Z,12.90
2019-04-20T03:16:11.375Z,12.90
2019-04-20T03:18:55.798Z,12.79
2019-04-20T03:21:24.740Z,12.50
2019-04-20T03:24:03.991Z,12.59
2019-04-20T03:26:36.732Z,12.51
2019-04-20T03:29:12.834Z,12.64
2019-04-20T03:32:28.254Z,12.77
2019-04-20T03:34:56.659Z,12.52
2019-04-20T03:37:07.394Z,12.72
2019-04-20T03:39:40.533Z,12.52
2019-04-20T03:41:56.675Z,12.43
2019-04-20T03:44:31.206Z,12.57
2019-04-20T03:47:26.668Z,12.39
2019-04-20T03:50:18.612Z,12.26
2019-04-20T03:53:04.455Z,12.34
2019-04-20T03:55:27.162Z,12.50
2019-04-20T03:58:14.251Z,12.39
2019-04-20T04:00:50.404Z,12.33
2019-04-20T04:04:00.318Z,12.33
2019-04-20T04:06:33.298Z,12.36
2019-04-20T04:09:02.738Z,12.31
2019-04-20T04:11:34.858Z,12.23
2019-04-20T04:13:45.982Z,12.14
2019-04-20T04:16:15.072Z,11.99
2019-04-20T04:19:32.856Z,12.12
2019-04-20T04:22:25.087Z,12.20
2019-04-20T04:25:30.051Z,11.98
2019-04-20T04:28:08.983Z,11.97
2019-04-20T04:30:32.994Z,11.86
2019-04-20T04:33:35.390Z,12.04
2019-04-20T04:35:26.788Z,11.98
2019-04-20T04:38:02.758Z,11.96
2019-04-20T04:40:42.479Z,11.98
2019-04-20T04:43:04.279Z,11.93
2019-04-20T04:45:08.103Z,11.82
2019-04-20T04:47:32.633Z,11.96
2019-04-20T04:50:07.537Z,12.01
2019-04-20T04:52:33.095Z,12.06
2019-04-20T04:55:24.908Z,11.97
2019-04-20T04:57:39.521Z,12.08
2019-04-20T05:00:05.698Z,12.10
2019-04-20T05:02:39.327Z,12.10
2019-04-20T05:05:47.317Z,12.15
2019-04-20T05:08:13.102Z,12.11
2019-04-20T05:10:33.006Z,12.13
2019-04-20T05:13:21.930Z,12.19
2019-04-20T05:16:01.347Z,12.26
2019-04-20T05:18:41.567Z,12.38
2019-04-20T05:21:07.425Z,12.29
2019-04-20T05:24:07.275Z,12.23
2019-04-20T05:27:08.782Z,12.33
2019-04-20T05:29:25.457Z,12.44
2019-04-20T05:31:54.357Z,12.68
2019-04-20T05:34:38.997Z,12.94
2019-04-20T05:37:06.529Z,13.15
2019-04-20T05:39:33.905Z,13.29
2019-04-20T05:41:56.246Z,13.55
2019-04-20T05:44:41.717Z,13.90
2019-04-20T05:47:31.562Z,13.81
2019-04-20T05:49:49.729Z,13.62
2019-04-20T05:55:10.210Z,14.38
2019-04-20T05:57:36.245Z,14.61
2019-04-20T06:00:47.777Z,14.70
2019-04-20T06:04:10.227Z,14.86
2019-04-20T06:07:05.648Z,14.87
2019-04-20T06:09:28.531Z,14.87
2019-04-20T06:14:43.187Z,15.13
2019-04-20T06:17:40.059Z,15.26
2019-04-20T06:20:14.892Z,15.12
2019-04-20T06:22:58.531Z,15.06
2019-04-20T06:25:55.934Z,15.27
2019-04-20T06:28:10.797Z,15.22
2019-04-20T06:31:20.279Z,15.38
2019-04-20T06:34:34.382Z,15.54
2019-04-20T06:37:10.162Z,15.92
2019-04-20T06:42:34.390Z,15.86
2019-04-20T06:44:48.155Z,15.79
2019-04-20T06:47:55.603Z,15.99
2019-04-20T06:50:52.728Z,16.18
2019-04-20T06:53:52.570Z,15.91
2019-04-20T06:56:55.663Z,16.35
2019-04-20T06:59:36.287Z,16.44
2019-04-20T07:02:22.173Z,16.42
2019-04-20T07:05:24.810Z,16.73
2019-04-20T07:07:43.250Z,16.95
2019-04-20T07:10:53.177Z,16.98
2019-04-20T07:13:44.465Z,17.14
2019-04-20T07:16:58.587Z,17.39
2019-04-20T07:19:34.922Z,17.10
2019-04-20T07:22:32.127Z,17.19
2019-04-20T07:25:37.400Z,17.39
2019-04-20T07:28:29.170Z,17.60
2019-04-20T07:30:52.056Z,17.95
2019-04-20T07:33:44.613Z,17.83
2019-04-20T07:36:45.829Z,17.99
2019-04-20T07:39:58.902Z,18.08
2019-04-20T07:42:46.775Z,18.02
2019-04-20T07:45:36.720Z,18.00
2019-04-20T07:48:30.745Z,18.01
2019-04-20T07:51:03.734Z,18.17
2019-04-20T07:53:42.201Z,18.35
2019-04-20T07:56:16.370Z,18.48
2019-04-20T07:58:41.403Z,18.82
2019-04-20T08:02:32.066Z,18.89
2019-04-20T08:05:49.877Z,19.01
2019-04-20T08:08:40.353Z,19.13
2019-04-20T08:11:32.062Z,19.10
2019-04-20T08:14:14.535Z,19.10
2019-04-20T08:17:21.451Z,19.06
2019-04-20T08:19:43.917Z,19.14
2019-04-20T08:22:27.019Z,19.36
2019-04-20T08:24:59.290Z,19.26
2019-04-20T08:27:37.931Z,19.13
2019-04-20T08:31:09.275Z,19.29
2019-04-20T08:33:54.902Z,19.49
2019-04-20T08:36:16.725Z,19.54
2019-04-20T08:39:19.953Z,19.49
2019-04-20T08:41:31.599Z,19.55
2019-04-20T08:44:48.387Z,19.72
2019-04-20T08:47:44.788Z,19.75
2019-04-20T08:50:28.123Z,19.82
2019-04-20T08:53:12.437Z,19.94
2019-04-20T08:55:45.354Z,19.81
2019-04-20T08:58:09.162Z,19.97
2019-04-20T09:00:55.969Z,19.99
2019-04-20T09:03:29.103Z,19.98
2019-04-20T09:06:41.413Z,20.20
2019-04-20T09:10:16.568Z,20.15
2019-04-20T09:12:45.220Z,20.09
2019-04-20T09:15:12.439Z,20.11
2019-04-20T09:18:32.463Z,20.21
2019-04-20T09:21:35.513Z,20.30
2019-04-20T09:24:56.275Z,20.23
2019-04-20T09:27:08.866Z,20.32
2019-04-20T09:30:22.965Z,20.36
2019-04-20T09:33:16.783Z,20.48
2019-04-20T09:35:48.662Z,20.57
2019-04-20T09:38:15.538Z,20.66
2019-04-20T09:41:03.599Z,20.76
2019-04-20T09:43:37.042Z,20.79
2019-04-20T09:46:32.858Z,20.80
2019-04-20T09:49:46.075Z,20.88
2019-04-20T09:52:57.091Z,20.90
2019-04-20T09:55:22.113Z,21.04
2019-04-20T09:58:06.845Z,21.17
2019-04-20T10:01:03.187Z,21.23
2019-04-20T10:03:18.809Z,21.07
2019-04-20T10:05:51.652Z,21.20
2019-04-20T10:08:23.805Z,21.32
2019-04-20T10:11:09.926Z,21.64
2019-04-20T10:14:14.446Z,21.58
2019-04-20T10:17:16.159Z,21.55
2019-04-20T10:20:10.835Z,21.74
2019-04-20T10:22:50.912Z,21.93
2019-04-20T10:26:02.589Z,21.90
2019-04-20T10:28:41.424Z,21.81
2019-04-20T10:31:57.198Z,21.90
2019-04-20T10:34:30.628Z,22.04
2019-04-20T10:37:11.598Z,22.10
2019-04-20T10:39:56.639Z,22.10
2019-04-20T10:43:00.966Z,22.28
2019-04-20T10:45:46.728Z,22.41
2019-04-20T10:48:13.149Z,22.49
2019-04-20T10:51:22.238Z,22.34
2019-04-20T10:53:54.101Z,22.46
2019-04-20T10:56:19.669Z,22.53
2019-04-20T10:58:49.646Z,22.50
2019-04-20T11:01:31.648Z,22.52
2019-04-20T11:04:34.395Z,22.44
2019-04-20T11:07:10.344Z,22.65
2019-04-20T11:09:36.635Z,22.84
2019-04-20T11:12:26.299Z,22.58
2019-04-20T11:15:16.772Z,22.77
2019-04-20T11:18:21.643Z,22.94
2019-04-20T11:21:09.387Z,22.71
2019-04-20T11:23:36.235Z,22.94
2019-04-20T11:26:42.282Z,22.97
2019-04-20T11:29:46.429Z,23.18
2019-04-20T11:32:24.113Z,22.83
2019-04-20T11:35:34.486Z,22.97
2019-04-20T11:38:17.255Z,23.15
2019-04-20T11:41:16.265Z,23.19
2019-04-20T11:44:11.592Z,23.07
2019-04-20T11:46:42.903Z,23.31
2019-04-20T11:49:19.616Z,23.06
2019-04-20T11:51:45.633Z,23.15
2019-04-20T11:55:12.629Z,23.36
2019-04-20T11:57:51.261Z,23.17
2019-04-20T12:00:53.226Z,23.09
2019-04-20T12:03:31.097Z,23.16
2019-04-20T12:06:28.935Z,23.51
2019-04-20T12:08:57.004Z,23.68
2019-04-20T12:11:56.209Z,23.57
2019-04-20T12:14:38.799Z,23.42
2019-04-20T12:17:49.476Z,23.56
2019-04-20T12:20:34.584Z,23.46
2019-04-20T12:23:00.258Z,23.74
2019-04-20T12:25:52.348Z,23.77
2019-04-20T12:28:22.623Z,23.57
2019-04-20T12:31:05.284Z,23.50
2019-04-20T12:33:46.397Z,23.79
2019-04-20T12:36:39.519Z,23.80
2019-04-20T12:39:13.224Z,23.81
2019-04-20T12:42:00.526Z,23.87
2019-04-20T12:44:49.992Z,23.93
2019-04-20T12:47:15.593Z,23.86
2019-04-20T12:50:29.847Z,24.12
2019-04-20T12:53:02.340Z,24.13
2019-04-20T12:55:32.611Z,24.11
2019-04-20T12:58:05.404Z,24.00
2019-04-20T13:01:22.865Z,23.84
2019-04-20T13:04:08.961Z,23.76
2019-04-20T13:06:59.584Z,23.85
2019-04-20T13:09:34.629Z,23.83
2019-04-20T13:12:58.477Z,23.64
2019-04-20T13:16:02.611Z,23.43
2019-04-20T13:18:50.907Z,23.60
2019-04-20T13:21:16.799Z,24.18
2019-04-20T13:24:25.471Z,24.02
2019-04-20T13:26:55.402Z,23.97
2019-04-20T13:29:55.877Z,24.18
2019-04-20T13:32:25.688Z,24.16
2019-04-20T13:34:54.660Z,23.95
2019-04-20T13:37:48.298Z,23.91
2019-04-20T13:40:48.205Z,24.00
2019-04-20T13:43:14.451Z,24.22
2019-04-20T13:45:53.100Z,24.17
2019-04-20T13:48:24.808Z,24.13
2019-04-20T13:51:00.168Z,24.30
2019-04-20T13:53:27.559Z,24.20
2019-04-20T13:56:32.271Z,24.25
2019-04-20T13:59:37.748Z,24.35
2019-04-20T14:02:40.946Z,24.15
2019-04-20T14:05:12.862Z,24.12
2019-04-20T14:07:59.654Z,24.30
2019-04-20T14:10:35.079Z,24.27
2019-04-20T14:13:25.702Z,24.41
2019-04-20T14:15:55.430Z,24.16
2019-04-20T14:18:40.964Z,24.36
2019-04-20T14:21:10.136Z,24.32
2019-04-20T14:24:04.189Z,24.24
2019-04-20T14:26:45.715Z,24.30
2019-04-20T14:29:35.365Z,24.31
2019-04-20T14:32:38.953Z,24.33
2019-04-20T14:35:07.180Z,24.60
2019-04-20T14:37:39.957Z,24.24
2019-04-20T14:40:28.331Z,24.27
2019-04-20T14:43:15.134Z,24.44
2019-04-20T14:45:45.018Z,24.39
2019-04-20T14:48:11.929Z,24.69
2019-04-20T14:50:38.020Z,24.61
2019-04-20T14:53:04.978Z,24.65
2019-04-20T14:55:31.470Z,24.35
2019-04-20T14:57:59.547Z,24.48
2019-04-20T15:00:50.996Z,24.46
2019-04-20T15:03:36.718Z,24.58
2019-04-20T15:06:03.369Z,24.34
2019-04-20T15:08:30.388Z,24.34
2019-04-20T15:10:56.681Z,24.53
2019-04-20T15:13:22.964Z,24.31
2019-04-20T15:15:48.821Z,24.53
2019-04-20T15:18:17.671Z,24.34
2019-04-20T15:20:48.115Z,24.35
2019-04-20T15:23:23.631Z,24.27
2019-04-20T15:25:50.627Z,24.43
2019-04-20T15:28:16.556Z,24.37
2019-04-20T15:30:42.572Z,24.25
2019-04-20T15:33:09.202Z,24.19
2019-04-20T15:35:35.068Z,24.28
2019-04-20T15:38:02.930Z,24.40
2019-04-20T15:40:28.982Z,24.20
2019-04-20T15:43:05.929Z,24.19
2019-04-20T15:45:23.284Z,24.27
2019-04-20T15:47:50.095Z,24.14
2019-04-20T15:50:16.067Z,24.14
2019-04-20T15:52:45.614Z,24.46
2019-04-20T15:55:18.590Z,24.21
2019-04-20T15:57:36.706Z,24.13
2019-04-20T16:00:02.698Z,24.12
2019-04-20T16:02:41.137Z,24.20
2019-04-20T16:05:16.552Z,24.17
2019-04-20T16:07:50.172Z,24.22
2019-04-20T16:10:09.691Z,24.18
2019-04-20T16:12:35.340Z,24.16
2019-04-20T16:15:02.002Z,24.34
2019-04-20T16:17:33.676Z,24.13
2019-04-20T16:20:07.986Z,23.99
2019-04-20T16:22:30.858Z,23.90
2019-04-20T16:25:03.591Z,23.97
2019-04-20T16:27:38.816Z,23.84
2019-04-20T16:30:05.783Z,23.91
2019-04-20T16:32:32.410Z,23.96
2019-04-20T16:34:58.303Z,23.90
2019-04-20T16:37:24.551Z,23.73
2019-04-20T16:39:50.433Z,23.79
2019-04-20T16:42:16.531Z,23.69
2019-04-20T16:44:43.093Z,23.64
2019-04-20T16:47:10.183Z,23.59
2019-04-20T16:49:37.063Z,23.55
2019-04-20T16:52:03.043Z,23.43
2019-04-20T16:54:30.112Z,23.36
2019-04-20T16:56:56.860Z,23.39
2019-04-20T16:59:24.739Z,23.29
2019-04-20T17:01:50.911Z,23.31
2019-04-20T17:04:22.028Z,23.28
2019-04-20T17:07:03.720Z,23.21
2019-04-20T17:09:29.636Z,23.26
2019-04-20T17:11:54.995Z,23.25
2019-04-20T17:14:20.892Z,23.18
2019-04-20T17:16:47.623Z,23.12
2019-04-20T17:19:13.413Z,23.05
2019-04-20T17:21:40.151Z,23.02
2019-04-20T17:24:07.210Z,22.95
2019-04-20T17:27:01.245Z,22.84
2019-04-20T17:29:46.177Z,22.91
2019-04-20T17:32:19.160Z,22.87
2019-04-20T17:35:06.001Z,22.80
2019-04-20T17:37:15.048Z,22.75
2019-04-20T17:40:04.241Z,22.76
2019-04-20T17:42:26.487Z,22.58
2019-04-20T17:44:46.977Z,22.57
2019-04-20T17:47:21.429Z,22.43
2019-04-20T17:49:44.929Z,22.50
2019-04-20T17:52:25.168Z,22.50
2019-04-20T17:54:49.475Z,22.42
2019-04-20T17:57:15.282Z,22.41
2019-04-20T17:59:51.167Z,22.33
2019-04-20T18:02:51.033Z,22.30
2019-04-20T18:05:26.983Z,22.37
2019-04-20T18:07:52.306Z,22.19
2019-04-20T18:10:17.499Z,22.25
2019-04-20T18:12:34.426Z,22.18
2019-04-20T18:15:10.329Z,21.98
2019-04-20T18:17:56.104Z,21.94
2019-04-20T18:20:14.921Z,21.96
2019-04-20T18:22:44.160Z,21.93
2019-04-20T18:25:29.909Z,21.80
2019-04-20T18:27:56.522Z,21.85
2019-04-20T18:30:22.797Z,21.94
2019-04-20T18:32:35.935Z,21.73
2019-04-20T18:35:08.424Z,21.63
2019-04-20T18:37:34.452Z,21.57
2019-04-20T18:40:07.121Z,21.53
2019-04-20T18:42:34.385Z,21.66
2019-04-20T18:45:14.945Z,21.46
2019-04-20T18:47:47.667Z,21.47
2019-04-20T18:50:04.469Z,21.47
2019-04-20T18:52:21.940Z,21.21
2019-04-20T18:54:50.586Z,21.23
2019-04-20T18:57:19.632Z,21.18
2019-04-20T18:59:47.867Z,21.12
2019-04-20T19:02:14.993Z,21.00
2019-04-20T19:04:37.682Z,21.16
2019-04-20T19:07:03.727Z,20.97
2019-04-20T19:09:30.898Z,21.13
2019-04-20T19:12:02.207Z,20.94
2019-04-20T19:15:02.402Z,20.97
2019-04-20T19:18:03.018Z,20.90
2019-04-20T19:20:30.744Z,20.83
2019-04-20T19:22:57.887Z,20.78
2019-04-20T19:25:28.176Z,20.65
2019-04-20T19:27:55.645Z,20.72
2019-04-20T19:30:31.177Z,20.52
2019-04-20T19:33:04.821Z,20.59
2019-04-20T19:35:27.448Z,20.51
2019-04-20T19:37:56.194Z,20.53
2019-04-20T19:40:20.956Z,20.54
2019-04-20T19:42:50.428Z,20.46
2019-04-20T19:45:31.694Z,20.37
2019-04-20T19:47:48.027Z,20.34
2019-04-20T19:50:35.608Z,20.40
2019-04-20T19:53:03.626Z,20.16
2019-04-20T19:55:23.692Z,20.20
2019-04-20T19:57:50.786Z,20.34
2019-04-20T20:00:00.570Z,20.19
2019-04-20T20:02:27.600Z,20.18
2019-04-20T20:05:04.101Z,19.98
2019-04-20T20:07:35.404Z,20.03
2019-04-20T20:10:01.489Z,20.02
2019-04-20T20:12:23.350Z,20.04
2019-04-20T20:14:53.169Z,20.10
2019-04-20T20:17:37.459Z,19.92
2019-04-20T20:20:17.355Z,19.73
2019-04-20T20:22:26.755Z,19.89
2019-04-20T20:24:41.460Z,19.74
2019-04-20T20:27:17.376Z,19.82
2019-04-20T20:29:41.443Z,19.81
2019-04-20T20:32:15.594Z,19.79
2019-04-20T20:34:36.111Z,19.73
2019-04-20T20:37:00.460Z,19.65
2019-04-20T20:39:29.576Z,19.54
2019-04-20T20:42:04.846Z,19.63
2019-04-20T20:44:37.291Z,19.31
2019-04-20T20:47:04.791Z,19.20
2019-04-20T20:49:33.248Z,19.42
2019-04-20T20:52:03.726Z,19.32
2019-04-20T20:54:25.809Z,19.49
2019-04-20T20:56:48.763Z,19.24
2019-04-20T20:59:11.592Z,19.28
2019-04-20T21:01:42.133Z,19.25
2019-04-20T21:04:00.597Z,19.06
2019-04-20T21:06:26.649Z,19.10
2019-04-20T21:08:56.046Z,18.84
2019-04-20T21:11:26.237Z,18.89
2019-04-20T21:13:50.505Z,18.95
2019-04-20T21:16:23.325Z,18.90
2019-04-20T21:19:01.023Z,18.73
2019-04-20T21:21:31.454Z,18.69
2019-04-20T21:23:48.080Z,18.78
2019-04-20T21:26:11.532Z,18.67
2019-04-20T21:28:37.947Z,18.57
2019-04-20T21:31:15.996Z,18.71
2019-04-20T21:33:40.111Z,18.63
2019-04-20T21:36:05.103Z,18.56
2019-04-20T21:38:35.897Z,18.33
2019-04-20T21:41:03.473Z,18.49
2019-04-20T21:43:29.771Z,18.39
2019-04-20T21:45:59.509Z,18.45
2019-04-20T21:48:40.529Z,18.43
2019-04-20T21:51:01.531Z,18.35
2019-04-20T21:53:23.142Z,18.15
2019-04-20T21:55:43.829Z,18.03
2019-04-20T21:58:10.314Z,18.17
2019-04-20T22:01:05.048Z,18.10
2019-04-20T22:03:22.523Z,18.20
2019-04-20T22:05:48.563Z,18.16
2019-04-20T22:08:17.476Z,17.86
2019-04-20T22:10:42.922Z,18.02
2019-04-20T22:13:09.961Z,17.79
2019-04-20T22:15:45.938Z,17.99
2019-04-20T22:18:07.950Z,17.84
2019-04-20T22:20:37.229Z,17.82
2019-04-20T22:23:12.125Z,17.70
2019-04-20T22:25:42.632Z,17.91
2019-04-20T22:27:51.737Z,17.65
2019-04-20T22:30:17.833Z,17.57
2019-04-20T22:32:50.655Z,17.56
2019-04-20T22:35:22.657Z,17.49
2019-04-20T22:38:01.148Z,17.46
2019-04-20T22:40:28.029Z,17.41
2019-04-20T22:42:54.634Z,17.39
2019-04-20T22:45:19.191Z,17.39
2019-04-20T22:47:45.927Z,17.53
2019-04-20T22:50:25.305Z,17.52
2019-04-20T22:52:48.642Z,17.33
2019-04-20T22:55:28.302Z,17.36
2019-04-20T22:57:49.745Z,17.36
2019-04-20T23:00:09.918Z,17.49
2019-04-20T23:02:30.214Z,17.30
2019-04-20T23:04:57.163Z,17.28
2019-04-20T23:07:23.150Z,17.30
2019-04-20T23:09:54.403Z,16.93
2019-04-20T23:12:22.583Z,17.03
2019-04-20T23:14:44.762Z,16.90
2019-04-20T23:17:10.481Z,17.00
2019-04-20T23:19:43.873Z,16.92
2019-04-20T23:22:07.032Z,16.88
2019-04-20T23:24:31.098Z,16.91
2019-04-20T23:26:57.389Z,16.78
2019-04-20T23:29:27.249Z,16.70
2019-04-20T23:31:56.886Z,16.70
2019-04-20T23:34:21.448Z,16.64
2019-04-20T23:36:48.488Z,16.59
2019-04-20T23:39:13.065Z,16.48
2019-04-20T23:41:43.154Z,16.65
2019-04-20T23:44:19.013Z,16.46
2019-04-20T23:47:11.487Z,16.53
2019-04-20T23:49:53.982Z,16.44
2019-04-20T23:52:26.907Z,16.45
2019-04-20T23:54:33.666Z,16.36
2019-04-20T23:56:57.725Z,16.63
2019-04-20T23:59:27.687Z,16.37
